Time;durP1;ratioP1;P1;durP2;ratioP2;P2;SDS_P1;SDS_P2;PMS_P1;PMS_P2;Temp;Humidity;BMP_temperature;BMP_pressure;BME280_temperature;BME280_humidity;BME280_pressure;Samples;Min_cycle;Max_cycle;Signal;HPM_P1;HPM_P2
2023/10/22 00:01:45;;;;;;;235.50;72.67;;;;;;;;;;4973863;28;20716;-46
2023/10/22 00:04:11;;;;;;;235.87;73.50;;;;;;;;;;4973663;28;20902;-46
2023/10/22 00:06:37;;;;;;;239.53;78.20;;;;;;;;;;4973620;28;20802;-46
2023/10/22 00:09:03;;;;;;;235.77;74.07;;;;;;;;;;4973983;28;20472;-46
2023/10/22 00:11:29;;;;;;;235.63;73.43;;;;;;;;;;4973712;28;20476;-46
2023/10/22 00:13:55;;;;;;;234.47;73.73;;;;;;;;;;4973166;28;20415;-47
2023/10/22 00:16:21;;;;;;;229.17;67.23;;;;;;;;;;4973517;28;20464;-46
2023/10/22 00:18:47;;;;;;;231.47;70.70;;;;;;;;;;4973612;28;20411;-46
2023/10/22 00:21:13;;;;;;;231.23;70.40;;;;;;;;;;4973932;28;20419;-46
2023/10/22 00:23:39;;;;;;;232.83;71.67;;;;;;;;;;4973431;28;20558;-46
2023/10/22 00:26:05;;;;;;;232.97;74.10;;;;;;;;;;4973738;28;20775;-46
2023/10/22 00:28:31;;;;;;;233.13;72.40;;;;;;;;;;4973656;28;20869;-46
2023/10/22 00:30:57;;;;;;;231.83;74.20;;;;;;;;;;4973778;28;20188;-47
2023/10/22 00:33:23;;;;;;;233.97;75.00;;;;;;;;;;4973330;28;20420;-46
2023/10/22 00:35:56;;;;;;;230.57;70.87;;;;;;;;;;4973383;28;20918;-46
2023/10/22 00:38:23;;;;;;;230.18;68.55;;;;;;;;;;4973577;28;20425;-45
2023/10/22 00:40:49;;;;;;;233.10;74.55;;;;;;;;;;4973462;28;20585;-46
2023/10/22 00:43:15;;;;;;;231.90;71.67;;;;;;;;;;4973251;28;20169;-46
2023/10/22 00:45:41;;;;;;;234.87;74.57;;;;;;;;;;4973329;28;20428;-45
2023/10/22 00:48:09;;;;;;;229.75;69.57;;;;;;;;;;4973426;28;20400;-46
2023/10/22 00:50:39;;;;;;;232.05;70.22;;;;;;;;;;4973415;28;20170;-46
2023/10/22 00:53:05;;;;;;;235.13;72.20;;;;;;;;;;4973121;28;20606;-46
2023/10/22 00:55:31;;;;;;;227.77;67.30;;;;;;;;;;4973120;28;20284;-48
2023/10/22 00:57:57;;;;;;;231.43;71.80;;;;;;;;;;4973150;28;20527;-46
2023/10/22 01:00:25;;;;;;;232.68;72.97;;;;;;;;;;4973221;28;20416;-46
2023/10/22 01:02:51;;;;;;;238.60;78.55;;;;;;;;;;4971521;28;20646;-46
2023/10/22 01:05:17;;;;;;;228.45;67.55;;;;;;;;;;4972671;28;20185;-46
2023/10/22 01:07:43;;;;;;;232.43;70.87;;;;;;;;;;4972187;28;20715;-47
2023/10/22 01:10:09;;;;;;;235.30;77.80;;;;;;;;;;4972821;28;20915;-46
2023/10/22 01:12:37;;;;;;;233.30;73.53;;;;;;;;;;4972887;28;20853;-46
2023/10/22 01:15:04;;;;;;;230.77;70.95;;;;;;;;;;4972779;28;20202;-47
2023/10/22 01:17:30;;;;;;;229.70;68.63;;;;;;;;;;4972982;28;20347;-46
2023/10/22 01:19:56;;;;;;;232.80;72.97;;;;;;;;;;4973164;28;20180;-46
2023/10/22 01:22:21;;;;;;;233.40;73.50;;;;;;;;;;4972980;28;20419;-46
2023/10/22 01:24:47;;;;;;;231.20;68.33;;;;;;;;;;4972551;28;20428;-47
2023/10/22 01:27:14;;;;;;;227.87;67.40;;;;;;;;;;4972421;28;20848;-47
2023/10/22 01:29:40;;;;;;;234.15;71.22;;;;;;;;;;4972615;28;21215;-46
2023/10/22 01:32:06;;;;;;;229.93;69.35;;;;;;;;;;4972588;28;20177;-46
2023/10/22 01:34:32;;;;;;;229.90;69.90;;;;;;;;;;4972680;28;20677;-45
2023/10/22 01:36:58;;;;;;;227.93;65.67;;;;;;;;;;4972471;28;20254;-45
2023/10/22 01:39:24;;;;;;;235.43;76.43;;;;;;;;;;4972490;28;20968;-45
2023/10/22 01:41:50;;;;;;;230.03;70.27;;;;;;;;;;4972577;28;20475;-46
2023/10/22 01:44:16;;;;;;;233.13;72.70;;;;;;;;;;4972250;28;20439;-45
2023/10/22 01:46:42;;;;;;;226.00;66.30;;;;;;;;;;4972488;28;20177;-46
2023/10/22 01:49:08;;;;;;;227.17;64.70;;;;;;;;;;4972648;28;20937;-47
2023/10/22 01:51:34;;;;;;;229.20;68.15;;;;;;;;;;4972546;28;20448;-46
2023/10/22 01:54:01;;;;;;;231.77;68.57;;;;;;;;;;4971999;28;20313;-45
2023/10/22 01:56:27;;;;;;;231.47;71.53;;;;;;;;;;4972557;28;20452;-47
2023/10/22 01:58:53;;;;;;;234.27;75.47;;;;;;;;;;4972434;28;20778;-45
2023/10/22 02:01:19;;;;;;;229.10;66.87;;;;;;;;;;4972413;28;20416;-45
2023/10/22 02:03:45;;;;;;;235.03;76.03;;;;;;;;;;4966418;28;20416;-45
2023/10/22 02:06:14;;;;;;;229.43;68.45;;;;;;;;;;4972275;28;20436;-46
2023/10/22 02:08:41;;;;;;;235.18;73.50;;;;;;;;;;4972214;28;20185;-46
2023/10/22 02:11:07;;;;;;;229.15;66.00;;;;;;;;;;4973433;28;20184;-46
2023/10/22 02:13:33;;;;;;;233.02;72.28;;;;;;;;;;4986875;28;20238;-47
2023/10/22 02:15:59;;;;;;;228.75;66.65;;;;;;;;;;4975967;28;20661;-46
2023/10/22 02:18:25;;;;;;;230.93;70.50;;;;;;;;;;4976109;28;20220;-45
2023/10/22 02:20:58;;;;;;;230.53;67.60;;;;;;;;;;4976054;28;20400;-45
2023/10/22 02:23:24;;;;;;;235.90;72.07;;;;;;;;;;4975790;28;20439;-45
2023/10/22 02:25:50;;;;;;;237.70;74.75;;;;;;;;;;4975861;28;20239;-46
2023/10/22 02:28:17;;;;;;;237.02;72.30;;;;;;;;;;4975955;28;20251;-45
2023/10/22 02:30:43;;;;;;;235.40;72.85;;;;;;;;;;4975837;28;20584;-46
2023/10/22 02:33:09;;;;;;;230.13;68.57;;;;;;;;;;4975594;28;20172;-46
2023/10/22 02:35:41;;;;;;;231.40;70.82;;;;;;;;;;4975600;28;20431;-47
2023/10/22 02:38:08;;;;;;;229.75;68.35;;;;;;;;;;4975682;28;20221;-46
2023/10/22 02:40:35;;;;;;;232.93;70.75;;;;;;;;;;4975705;28;20170;-46
2023/10/22 02:43:02;;;;;;;230.65;68.78;;;;;;;;;;4975339;28;20192;-47
2023/10/22 02:45:28;;;;;;;231.85;70.38;;;;;;;;;;4975554;28;20231;-45
2023/10/22 02:47:55;;;;;;;228.97;69.10;;;;;;;;;;4975605;28;20176;-47
2023/10/22 02:50:21;;;;;;;233.10;73.32;;;;;;;;;;4975511;28;20423;-46
2023/10/22 02:52:47;;;;;;;227.98;64.68;;;;;;;;;;4975213;28;20177;-46
2023/10/22 02:55:13;;;;;;;228.75;66.18;;;;;;;;;;4975442;28;20317;-47
2023/10/22 02:57:39;;;;;;;229.93;70.37;;;;;;;;;;4975259;28;20209;-46
2023/10/22 03:00:10;;;;;;;230.02;68.55;;;;;;;;;;4975386;28;20407;-46
2023/10/22 03:02:36;;;;;;;228.75;65.53;;;;;;;;;;4975136;28;20165;-47
2023/10/22 03:05:02;;;;;;;228.80;67.35;;;;;;;;;;4975108;28;20196;-46
2023/10/22 03:07:28;;;;;;;234.30;73.70;;;;;;;;;;4975048;28;20203;-46
2023/10/22 03:09:54;;;;;;;226.80;62.67;;;;;;;;;;4975185;28;20173;-46
2023/10/22 03:12:20;;;;;;;230.20;67.32;;;;;;;;;;4975045;28;20439;-46
2023/10/22 03:14:48;;;;;;;225.57;62.43;;;;;;;;;;4974866;28;20223;-46
2023/10/22 03:17:14;;;;;;;226.30;64.50;;;;;;;;;;4974855;28;20898;-46
2023/10/22 03:19:40;;;;;;;227.95;65.95;;;;;;;;;;4975057;28;20255;-46
2023/10/22 03:22:06;;;;;;;228.77;65.27;;;;;;;;;;4974857;28;20217;-46
2023/10/22 03:24:32;;;;;;;230.67;65.83;;;;;;;;;;4974073;28;20415;-46
2023/10/22 03:26:59;;;;;;;230.02;65.43;;;;;;;;;;4974865;28;20453;-46
2023/10/22 03:29:25;;;;;;;228.25;64.70;;;;;;;;;;4975263;28;20168;-47
2023/10/22 03:31:51;;;;;;;234.07;70.70;;;;;;;;;;4974562;28;20227;-45
2023/10/22 03:34:17;;;;;;;231.68;67.35;;;;;;;;;;4974413;28;20695;-46
2023/10/22 03:36:44;;;;;;;229.27;63.47;;;;;;;;;;4974541;28;20204;-46
2023/10/22 03:39:13;;;;;;;226.57;63.55;;;;;;;;;;4974689;28;20406;-46
2023/10/22 03:41:39;;;;;;;230.98;67.10;;;;;;;;;;4974526;28;20511;-46
2023/10/22 03:44:05;;;;;;;226.83;62.90;;;;;;;;;;4974273;28;20238;-46
2023/10/22 03:46:31;;;;;;;229.20;63.97;;;;;;;;;;4974415;28;20458;-46
2023/10/22 03:48:58;;;;;;;228.55;62.58;;;;;;;;;;4974413;28;20403;-47
2023/10/22 03:51:24;;;;;;;229.63;64.07;;;;;;;;;;4974373;28;20648;-46
2023/10/22 03:53:53;;;;;;;227.68;64.45;;;;;;;;;;4974266;28;20175;-45
2023/10/22 03:56:19;;;;;;;228.02;62.75;;;;;;;;;;4974238;28;20222;-47
2023/10/22 03:58:45;;;;;;;227.03;62.13;;;;;;;;;;4974307;28;20527;-46
2023/10/22 04:01:11;;;;;;;230.73;65.57;;;;;;;;;;4974074;28;20468;-45
2023/10/22 04:03:37;;;;;;;231.17;65.07;;;;;;;;;;4973876;28;20465;-46
2023/10/22 04:06:03;;;;;;;224.03;58.47;;;;;;;;;;4973807;28;20452;-45
2023/10/22 04:08:29;;;;;;;230.57;66.30;;;;;;;;;;4974182;28;20404;-46
2023/10/22 04:10:56;;;;;;;232.60;68.43;;;;;;;;;;4973885;28;20996;-46
2023/10/22 04:13:23;;;;;;;230.20;63.97;;;;;;;;;;4973707;28;20247;-45
2023/10/22 04:15:49;;;;;;;230.48;67.30;;;;;;;;;;4973898;28;20423;-47
2023/10/22 04:18:16;;;;;;;230.73;66.68;;;;;;;;;;4973875;28;20277;-46
2023/10/22 04:20:42;;;;;;;228.07;62.92;;;;;;;;;;4973891;28;20175;-47
2023/10/22 04:23:11;;;;;;;228.98;62.78;;;;;;;;;;4973497;28;20172;-46
2023/10/22 04:25:40;;;;;;;229.48;63.13;;;;;;;;;;4974384;28;20195;-47
2023/10/22 04:28:06;;;;;;;228.82;64.00;;;;;;;;;;4973702;28;20250;-48
2023/10/22 04:30:33;;;;;;;227.48;60.83;;;;;;;;;;4973746;28;20230;-48
2023/10/22 04:32:59;;;;;;;229.75;63.10;;;;;;;;;;4973422;28;20250;-46
2023/10/22 04:35:25;;;;;;;225.30;59.87;;;;;;;;;;4973320;28;20226;-47
2023/10/22 04:37:54;;;;;;;228.37;63.63;;;;;;;;;;4972983;28;20888;-48
2023/10/22 04:40:20;;;;;;;223.77;58.17;;;;;;;;;;4973568;28;20403;-48
2023/10/22 04:42:46;;;;;;;229.77;63.20;;;;;;;;;;4973149;28;20652;-47
2023/10/22 04:45:12;;;;;;;227.90;61.77;;;;;;;;;;4973367;28;20234;-47
2023/10/22 04:47:38;;;;;;;228.38;62.10;;;;;;;;;;4973419;28;20409;-47
2023/10/22 04:50:04;;;;;;;228.68;63.58;;;;;;;;;;4973371;28;20175;-47
2023/10/22 04:52:31;;;;;;;229.32;62.50;;;;;;;;;;4973281;28;20177;-48
2023/10/22 04:54:58;;;;;;;227.95;61.95;;;;;;;;;;4973021;28;20318;-47
2023/10/22 04:57:24;;;;;;;229.25;62.08;;;;;;;;;;4973098;28;20197;-48
2023/10/22 04:59:50;;;;;;;226.57;61.53;;;;;;;;;;4973193;28;20269;-48
2023/10/22 05:02:16;;;;;;;226.40;60.40;;;;;;;;;;4973063;28;20451;-46
2023/10/22 05:04:42;;;;;;;226.43;60.10;;;;;;;;;;4972972;28;20959;-47
2023/10/22 05:07:08;;;;;;;229.88;64.22;;;;;;;;;;4972932;28;20430;-46
2023/10/22 05:09:34;;;;;;;226.70;60.60;;;;;;;;;;4973161;28;20251;-46
2023/10/22 05:12:00;;;;;;;230.67;65.70;;;;;;;;;;4972988;28;20892;-47
2023/10/22 05:14:26;;;;;;;227.33;63.03;;;;;;;;;;4973004;28;20960;-47
2023/10/22 05:16:55;;;;;;;226.82;60.67;;;;;;;;;;4973052;28;20485;-48
2023/10/22 05:19:21;;;;;;;223.02;57.88;;;;;;;;;;4973035;28;20171;-47
2023/10/22 05:21:47;;;;;;;229.00;63.80;;;;;;;;;;4973036;28;20514;-47
2023/10/22 05:24:13;;;;;;;227.33;63.23;;;;;;;;;;4972667;28;20417;-46
2023/10/22 05:26:39;;;;;;;228.03;62.60;;;;;;;;;;4972913;28;20438;-45
2023/10/22 05:29:06;;;;;;;226.68;63.03;;;;;;;;;;4972994;28;20407;-47
2023/10/22 05:31:32;;;;;;;230.30;66.13;;;;;;;;;;4972979;28;20665;-48
2023/10/22 05:33:58;;;;;;;227.57;60.70;;;;;;;;;;4972483;28;20176;-46
2023/10/22 05:36:25;;;;;;;222.20;57.03;;;;;;;;;;4972844;28;20194;-48
2023/10/22 05:38:51;;;;;;;227.57;62.13;;;;;;;;;;4972757;28;20407;-46
2023/10/22 05:41:23;;;;;;;228.33;62.50;;;;;;;;;;4972754;28;20230;-48
2023/10/22 05:43:56;;;;;;;228.95;63.05;;;;;;;;;;4972453;28;20394;-47
2023/10/22 05:46:23;;;;;;;228.43;63.45;;;;;;;;;;4972848;28;20251;-47
2023/10/22 05:48:49;;;;;;;227.82;62.72;;;;;;;;;;4975648;28;20174;-47
2023/10/22 05:51:15;;;;;;;224.75;59.95;;;;;;;;;;4976591;28;20203;-48
2023/10/22 05:53:41;;;;;;;224.87;58.57;;;;;;;;;;4976187;28;20183;-48
2023/10/22 05:56:07;;;;;;;228.80;65.30;;;;;;;;;;4976406;28;20414;-47
2023/10/22 05:58:33;;;;;;;230.93;67.23;;;;;;;;;;4976671;28;20411;-47
2023/10/22 06:00:59;;;;;;;224.50;59.43;;;;;;;;;;4976450;28;20409;-47
2023/10/22 06:03:25;;;;;;;226.83;62.27;;;;;;;;;;4976302;28;20407;-48
2023/10/22 06:05:51;;;;;;;226.03;60.57;;;;;;;;;;4976166;28;20427;-47
2023/10/22 06:08:17;;;;;;;230.43;66.27;;;;;;;;;;4976157;28;20414;-47
2023/10/22 06:10:44;;;;;;;224.00;58.07;;;;;;;;;;4976270;28;20407;-47
2023/10/22 06:13:11;;;;;;;225.52;59.78;;;;;;;;;;4975947;28;20421;-48
2023/10/22 06:15:39;;;;;;;227.27;59.55;;;;;;;;;;4976072;28;20268;-48
2023/10/22 06:18:05;;;;;;;228.55;63.63;;;;;;;;;;4976032;28;20203;-46
2023/10/22 06:20:31;;;;;;;225.43;60.17;;;;;;;;;;4976002;28;20258;-46
2023/10/22 06:22:57;;;;;;;228.95;64.10;;;;;;;;;;4975676;28;20176;-47
2023/10/22 06:25:23;;;;;;;244.45;78.43;;;;;;;;;;4974641;28;20189;-47
2023/10/22 06:27:50;;;;;;;227.20;64.05;;;;;;;;;;4979403;28;20210;-47
2023/10/22 06:30:21;;;;;;;230.63;65.78;;;;;;;;;;4975704;28;20194;-45
2023/10/22 06:32:47;;;;;;;237.65;72.18;;;;;;;;;;4970946;28;20183;-46
2023/10/22 06:35:13;;;;;;;228.57;63.37;;;;;;;;;;4975330;28;20252;-47
2023/10/22 06:37:39;;;;;;;227.60;61.78;;;;;;;;;;4975193;28;20483;-47
2023/10/22 06:40:07;;;;;;;228.63;62.93;;;;;;;;;;4975531;28;20179;-47
2023/10/22 06:42:33;;;;;;;229.18;65.05;;;;;;;;;;4975312;28;20426;-46
2023/10/22 06:44:59;;;;;;;230.43;69.40;;;;;;;;;;4975172;28;20636;-47
2023/10/22 06:47:25;;;;;;;224.87;61.07;;;;;;;;;;4975493;28;20205;-47
2023/10/22 06:49:51;;;;;;;230.33;68.07;;;;;;;;;;4975212;28;20427;-48
2023/10/22 06:52:17;;;;;;;229.15;66.10;;;;;;;;;;4975178;28;20435;-46
2023/10/22 06:54:43;;;;;;;223.73;62.37;;;;;;;;;;4974924;28;20195;-46
2023/10/22 06:57:09;;;;;;;230.93;70.17;;;;;;;;;;4975257;28;20464;-46
2023/10/22 06:59:35;;;;;;;228.03;66.90;;;;;;;;;;4974386;28;20407;-48
2023/10/22 07:02:01;;;;;;;229.17;67.13;;;;;;;;;;4975191;28;20397;-46
2023/10/22 07:04:27;;;;;;;229.60;67.00;;;;;;;;;;4974848;28;20428;-48
2023/10/22 07:06:53;;;;;;;234.27;75.33;;;;;;;;;;4981013;28;20449;-46
2023/10/22 07:09:19;;;;;;;227.43;64.57;;;;;;;;;;4978319;28;20422;-47
2023/10/22 07:11:46;;;;;;;236.67;76.80;;;;;;;;;;4974906;28;20427;-47
2023/10/22 07:14:12;;;;;;;229.70;67.85;;;;;;;;;;4974616;28;20446;-47
2023/10/22 07:16:38;;;;;;;227.57;65.00;;;;;;;;;;4974772;28;20684;-44
2023/10/22 07:19:04;;;;;;;226.40;64.13;;;;;;;;;;4975189;28;20632;-45
2023/10/22 07:21:30;;;;;;;230.83;68.43;;;;;;;;;;4974709;28;20262;-46
2023/10/22 07:23:57;;;;;;;230.17;65.87;;;;;;;;;;4974294;28;20416;-46
2023/10/22 07:26:25;;;;;;;229.25;66.38;;;;;;;;;;4974577;28;20439;-46
2023/10/22 07:28:51;;;;;;;231.48;69.30;;;;;;;;;;4974854;28;20588;-47
2023/10/22 07:31:17;;;;;;;232.65;71.35;;;;;;;;;;4974763;28;20168;-47
2023/10/22 07:33:43;;;;;;;231.48;70.20;;;;;;;;;;4974286;28;20174;-46
2023/10/22 07:36:09;;;;;;;231.65;70.50;;;;;;;;;;4974493;28;20271;-46
2023/10/22 07:38:37;;;;;;;230.32;68.25;;;;;;;;;;4974643;28;20629;-46
2023/10/22 07:41:03;;;;;;;232.10;70.55;;;;;;;;;;4974720;28;20673;-46
2023/10/22 07:43:29;;;;;;;231.73;69.57;;;;;;;;;;4974316;28;20667;-48
2023/10/22 07:45:59;;;;;;;232.85;69.80;;;;;;;;;;4974885;28;20420;-46
2023/10/22 07:48:26;;;;;;;230.70;67.10;;;;;;;;;;4974503;28;20173;-47
2023/10/22 07:50:52;;;;;;;228.10;63.58;;;;;;;;;;4974492;28;20557;-47
2023/10/22 07:53:18;;;;;;;230.03;66.60;;;;;;;;;;4974129;28;20164;-46
2023/10/22 07:55:45;;;;;;;230.13;69.63;;;;;;;;;;4974484;28;20911;-46
2023/10/22 07:58:11;;;;;;;230.60;69.72;;;;;;;;;;4974209;28;20480;-46
2023/10/22 08:00:37;;;;;;;232.88;71.20;;;;;;;;;;4974185;28;20251;-46
2023/10/22 08:03:03;;;;;;;233.67;72.23;;;;;;;;;;4974048;28;20699;-47
2023/10/22 08:05:31;;;;;;;230.82;68.50;;;;;;;;;;4974227;28;20428;-47
2023/10/22 08:07:57;;;;;;;230.40;67.37;;;;;;;;;;4974056;28;20224;-46
2023/10/22 08:10:23;;;;;;;229.53;66.63;;;;;;;;;;4973943;28;20444;-45
2023/10/22 08:12:49;;;;;;;232.20;70.78;;;;;;;;;;4973790;28;20409;-46
2023/10/22 08:15:15;;;;;;;228.57;65.60;;;;;;;;;;4973802;28;20233;-46
2023/10/22 08:17:41;;;;;;;228.03;68.17;;;;;;;;;;4973881;28;20488;-46
2023/10/22 08:20:07;;;;;;;231.50;69.60;;;;;;;;;;4973930;28;20440;-46
2023/10/22 08:22:33;;;;;;;238.03;76.03;;;;;;;;;;4973100;28;20397;-46
2023/10/22 08:24:59;;;;;;;230.83;67.37;;;;;;;;;;4973032;28;20427;-46
2023/10/22 08:27:25;;;;;;;230.63;67.10;;;;;;;;;;4973493;28;20413;-46
2023/10/22 08:29:51;;;;;;;234.67;74.30;;;;;;;;;;4973721;28;20402;-45
2023/10/22 08:32:17;;;;;;;229.80;68.57;;;;;;;;;;4973636;28;20410;-47
2023/10/22 08:34:43;;;;;;;232.20;70.30;;;;;;;;;;4973663;28;20421;-45
2023/10/22 08:37:09;;;;;;;227.57;66.27;;;;;;;;;;4973603;28;20456;-45
2023/10/22 08:39:35;;;;;;;232.77;71.87;;;;;;;;;;4973576;28;20405;-45
2023/10/22 08:42:09;;;;;;;232.77;72.77;;;;;;;;;;4973518;28;20452;-46
2023/10/22 08:44:40;;;;;;;233.23;71.40;;;;;;;;;;4973203;28;20431;-47
2023/10/22 08:47:08;;;;;;;233.07;73.93;;;;;;;;;;4973465;28;20765;-47
2023/10/22 08:49:35;;;;;;;230.60;69.43;;;;;;;;;;4973351;28;20413;-46
2023/10/22 08:52:01;;;;;;;231.97;72.07;;;;;;;;;;4973365;28;20408;-46
2023/10/22 08:54:27;;;;;;;230.80;71.18;;;;;;;;;;4973047;28;20424;-46
2023/10/22 08:56:53;;;;;;;229.90;69.20;;;;;;;;;;4973207;28;20208;-46
2023/10/22 08:59:19;;;;;;;232.97;71.23;;;;;;;;;;4973285;28;20437;-46
2023/10/22 09:01:47;;;;;;;232.80;70.73;;;;;;;;;;4973151;28;20397;-47
2023/10/22 09:04:12;;;;;;;231.10;69.33;;;;;;;;;;4972898;28;20425;-46
2023/10/22 09:06:38;;;;;;;230.07;67.00;;;;;;;;;;4972975;28;20448;-46
2023/10/22 09:09:04;;;;;;;234.60;73.17;;;;;;;;;;4973227;28;20889;-48
2023/10/22 09:11:30;;;;;;;233.67;73.13;;;;;;;;;;4973043;28;20483;-46
2023/10/22 09:13:56;;;;;;;239.57;81.20;;;;;;;;;;4972819;28;20489;-47
2023/10/22 09:16:29;;;;;;;233.70;73.97;;;;;;;;;;4973032;28;20897;-47
2023/10/22 09:18:56;;;;;;;234.27;75.47;;;;;;;;;;4973043;28;20430;-46
2023/10/22 09:21:22;;;;;;;231.68;73.78;;;;;;;;;;4973155;28;20401;-47
2023/10/22 09:24:04;;;;;;;234.30;75.60;;;;;;;;;;4972052;28;20166;-47
2023/10/22 09:26:43;;;;;;;233.37;73.80;;;;;;;;;;4973114;28;20408;-47
2023/10/22 09:29:09;;;;;;;234.10;74.60;;;;;;;;;;4973060;28;21031;-47
2023/10/22 09:31:35;;;;;;;232.13;71.97;;;;;;;;;;4972981;28;20502;-46
2023/10/22 09:34:02;;;;;;;231.67;70.67;;;;;;;;;;4972652;28;20506;-47
2023/10/22 09:36:28;;;;;;;234.40;75.32;;;;;;;;;;4972742;28;20448;-46
2023/10/22 09:38:54;;;;;;;232.80;73.13;;;;;;;;;;4973172;28;20201;-47
2023/10/22 09:41:23;;;;;;;234.53;75.40;;;;;;;;;;4972897;28;20401;-47
2023/10/22 09:43:57;;;;;;;236.30;75.17;;;;;;;;;;4972604;28;20422;-45
2023/10/22 09:46:25;;;;;;;231.17;72.37;;;;;;;;;;4972960;28;20405;-46
2023/10/22 09:48:51;;;;;;;232.23;72.13;;;;;;;;;;4972832;28;20399;-46
2023/10/22 09:51:17;;;;;;;231.47;73.53;;;;;;;;;;4972799;28;20768;-46
2023/10/22 09:53:53;;;;;;;230.85;72.57;;;;;;;;;;4972411;28;20403;-47
2023/10/22 09:56:22;;;;;;;231.93;71.28;;;;;;;;;;4972952;28;20565;-47
2023/10/22 09:58:50;;;;;;;233.07;74.00;;;;;;;;;;4972920;28;20698;-46
2023/10/22 10:01:16;;;;;;;232.33;72.97;;;;;;;;;;4972740;28;20402;-46
2023/10/22 10:03:42;;;;;;;233.13;72.23;;;;;;;;;;4972382;28;20409;-46
2023/10/22 10:06:09;;;;;;;235.33;75.13;;;;;;;;;;4972481;28;20519;-46
2023/10/22 10:08:36;;;;;;;234.63;74.28;;;;;;;;;;4972628;28;20401;-47
2023/10/22 10:11:03;;;;;;;232.43;73.63;;;;;;;;;;4972593;28;20192;-47
2023/10/22 10:13:29;;;;;;;235.23;76.10;;;;;;;;;;4972296;28;20189;-46
2023/10/22 10:16:02;;;;;;;234.70;74.57;;;;;;;;;;4972450;28;20976;-46
2023/10/22 10:18:46;;;;;;;232.73;73.40;;;;;;;;;;4972507;28;20968;-46
2023/10/22 10:21:31;;;;;;;231.73;72.40;;;;;;;;;;4972510;28;20176;-46
2023/10/22 10:24:16;;;;;;;232.77;72.30;;;;;;;;;;4972258;28;20453;-46
2023/10/22 10:26:42;;;;;;;237.03;77.70;;;;;;;;;;4973299;28;20500;-46
2023/10/22 10:29:08;;;;;;;231.07;69.50;;;;;;;;;;4972503;28;20435;-46
2023/10/22 10:31:34;;;;;;;231.77;70.77;;;;;;;;;;4972619;28;20429;-46
2023/10/22 10:34:03;;;;;;;235.93;75.40;;;;;;;;;;4972272;28;20946;-47
2023/10/22 10:36:30;;;;;;;231.53;71.87;;;;;;;;;;4975800;28;20457;-46
2023/10/22 10:39:28;;;;;;;230.37;68.37;;;;;;;;;;4975733;28;20403;-46
2023/10/22 10:41:54;;;;;;;229.07;68.50;;;;;;;;;;4943160;28;20787;-46
2023/10/22 10:44:20;;;;;;;230.43;70.43;;;;;;;;;;4975520;28;20423;-47
2023/10/22 10:46:46;;;;;;;233.83;74.50;;;;;;;;;;4975694;28;20413;-47
2023/10/22 10:49:12;;;;;;;233.00;74.17;;;;;;;;;;4975600;28;20419;-46
2023/10/22 10:51:38;;;;;;;231.47;70.17;;;;;;;;;;4975393;28;20403;-46
2023/10/22 10:54:03;;;;;;;232.37;71.77;;;;;;;;;;4975284;28;20431;-47
2023/10/22 10:56:48;;;;;;;232.77;73.53;;;;;;;;;;4975836;28;20492;-46
2023/10/22 10:59:34;;;;;;;232.17;72.27;;;;;;;;;;4975536;28;20409;-46
2023/10/22 11:02:02;;;;;;;233.67;72.87;;;;;;;;;;4975229;28;20923;-47
2023/10/22 11:04:29;;;;;;;235.47;75.23;;;;;;;;;;4975020;28;20948;-46
2023/10/22 11:06:56;;;;;;;231.10;72.07;;;;;;;;;;4975424;28;20489;-47
2023/10/22 11:09:22;;;;;;;234.90;77.27;;;;;;;;;;4975264;28;20405;-46
2023/10/22 11:12:03;;;;;;;232.27;71.10;;;;;;;;;;4975107;28;20901;-47
2023/10/22 11:14:30;;;;;;;231.77;70.60;;;;;;;;;;4974819;28;20431;-46
2023/10/22 11:16:57;;;;;;;236.13;78.07;;;;;;;;;;4975023;28;20458;-46
2023/10/22 11:19:23;;;;;;;233.47;73.40;;;;;;;;;;4975183;28;20408;-46
2023/10/22 11:21:50;;;;;;;232.23;71.80;;;;;;;;;;4975339;28;20838;-47
2023/10/22 11:24:16;;;;;;;232.07;73.77;;;;;;;;;;4974792;28;20476;-46
2023/10/22 11:26:42;;;;;;;236.80;80.00;;;;;;;;;;4974954;28;20413;-46
2023/10/22 11:29:09;;;;;;;230.77;72.03;;;;;;;;;;4968394;28;20943;-45
2023/10/22 11:31:35;;;;;;;232.00;73.00;;;;;;;;;;4961564;28;20416;-46
2023/10/22 11:34:17;;;;;;;234.70;73.40;;;;;;;;;;4954688;28;20496;-46
2023/10/22 11:36:43;;;;;;;228.65;69.28;;;;;;;;;;4955379;29;20950;-46
2023/10/22 11:39:16;;;;;;;229.07;67.70;;;;;;;;;;4955379;29;20177;-46
2023/10/22 11:41:42;;;;;;;237.50;75.37;;;;;;;;;;4954017;29;20508;-46
2023/10/22 11:44:09;;;;;;;232.43;71.60;;;;;;;;;;4955053;28;20417;-46
2023/10/22 11:46:41;;;;;;;231.57;72.00;;;;;;;;;;4954808;28;20407;-46
2023/10/22 11:49:07;;;;;;;233.43;74.90;;;;;;;;;;4955361;28;20410;-47
2023/10/22 11:51:45;;;;;;;228.83;68.27;;;;;;;;;;4955157;29;20417;-46
2023/10/22 11:54:11;;;;;;;228.27;68.18;;;;;;;;;;4954903;29;20441;-47
2023/10/22 11:56:37;;;;;;;229.43;68.53;;;;;;;;;;4955011;29;20229;-45
2023/10/22 11:59:06;;;;;;;234.93;74.17;;;;;;;;;;4955066;29;20732;-46
2023/10/22 12:01:32;;;;;;;231.07;70.83;;;;;;;;;;4955384;28;20404;-46
2023/10/22 12:03:58;;;;;;;232.60;72.77;;;;;;;;;;4954623;28;20436;-46
2023/10/22 12:06:24;;;;;;;231.47;70.03;;;;;;;;;;4957761;28;20433;-46
2023/10/22 12:08:50;;;;;;;232.87;72.37;;;;;;;;;;4974142;28;20412;-47
2023/10/22 12:11:16;;;;;;;231.50;70.67;;;;;;;;;;4974174;28;20413;-46
2023/10/22 12:13:42;;;;;;;233.27;73.60;;;;;;;;;;4973823;28;20549;-46
2023/10/22 12:16:08;;;;;;;237.67;79.43;;;;;;;;;;4974001;28;20407;-46
2023/10/22 12:18:34;;;;;;;235.37;76.00;;;;;;;;;;4973978;28;20505;-46
2023/10/22 12:21:01;;;;;;;235.77;76.00;;;;;;;;;;4973893;28;20835;-46
2023/10/22 12:23:27;;;;;;;237.97;82.57;;;;;;;;;;4973893;28;20440;-47
2023/10/22 12:25:53;;;;;;;238.10;79.77;;;;;;;;;;4973862;28;20426;-46
2023/10/22 12:28:23;;;;;;;240.30;84.40;;;;;;;;;;4973738;28;20399;-46
2023/10/22 12:30:49;;;;;;;242.53;86.00;;;;;;;;;;4974246;28;20400;-46
2023/10/22 12:33:15;;;;;;;242.00;88.90;;;;;;;;;;4973585;28;20414;-46
2023/10/22 12:35:41;;;;;;;244.37;90.63;;;;;;;;;;4973589;28;20477;-47
2023/10/22 12:38:07;;;;;;;242.30;88.37;;;;;;;;;;4973678;28;20457;-47
2023/10/22 12:40:33;;;;;;;242.83;90.63;;;;;;;;;;4973676;28;20407;-47
2023/10/22 12:42:59;;;;;;;248.30;97.23;;;;;;;;;;4973325;28;20465;-48
2023/10/22 12:45:25;;;;;;;245.90;95.07;;;;;;;;;;4973624;28;20438;-46
2023/10/22 12:47:50;;;;;;;241.30;88.13;;;;;;;;;;4973532;28;20416;-46
2023/10/22 12:50:16;;;;;;;245.27;95.93;;;;;;;;;;4973454;28;20463;-46
2023/10/22 12:52:42;;;;;;;241.53;88.87;;;;;;;;;;4973296;28;20407;-46
2023/10/22 12:55:08;;;;;;;243.30;93.83;;;;;;;;;;4973285;28;20429;-47
2023/10/22 12:57:34;;;;;;;241.57;89.73;;;;;;;;;;4972619;28;20457;-47
2023/10/22 13:00:04;;;;;;;244.37;94.90;;;;;;;;;;4973365;28;20405;-46
2023/10/22 13:02:33;;;;;;;240.87;89.47;;;;;;;;;;4973299;28;20405;-46
2023/10/22 13:04:59;;;;;;;243.13;91.77;;;;;;;;;;4972984;28;20908;-47
2023/10/22 13:07:25;;;;;;;242.33;90.00;;;;;;;;;;4973130;28;20442;-46
2023/10/22 13:09:51;;;;;;;243.47;90.53;;;;;;;;;;4973580;28;20408;-46
2023/10/22 13:12:17;;;;;;;248.03;98.67;;;;;;;;;;4973269;28;20420;-46
2023/10/22 13:14:43;;;;;;;240.97;87.73;;;;;;;;;;4972983;28;20428;-47
2023/10/22 13:17:09;;;;;;;245.33;93.40;;;;;;;;;;4973157;28;20472;-46
2023/10/22 13:19:35;;;;;;;240.17;88.10;;;;;;;;;;4967554;28;20474;-46
2023/10/22 13:22:01;;;;;;;240.97;87.07;;;;;;;;;;4962392;28;20894;-47
2023/10/22 13:24:27;;;;;;;244.13;91.30;;;;;;;;;;4953459;29;20969;-47
2023/10/22 13:26:53;;;;;;;245.20;93.63;;;;;;;;;;4953696;29;20817;-46
2023/10/22 13:29:19;;;;;;;240.47;88.23;;;;;;;;;;4953743;28;20902;-47
2023/10/22 13:31:45;;;;;;;248.47;95.03;;;;;;;;;;4953614;29;20405;-46
2023/10/22 13:34:11;;;;;;;244.70;91.97;;;;;;;;;;4953360;29;20828;-47
2023/10/22 13:36:37;;;;;;;241.67;90.20;;;;;;;;;;4953513;29;20457;-47
2023/10/22 13:39:03;;;;;;;243.20;89.93;;;;;;;;;;4953650;29;20436;-47
2023/10/22 13:41:29;;;;;;;244.87;91.03;;;;;;;;;;4953591;29;20803;-46
2023/10/22 13:43:55;;;;;;;244.57;86.40;;;;;;;;;;4953133;29;20448;-46
2023/10/22 13:46:21;;;;;;;239.67;82.33;;;;;;;;;;4953466;29;20409;-47
2023/10/22 13:48:47;;;;;;;240.17;82.67;;;;;;;;;;4953428;28;20408;-47
2023/10/22 13:51:13;;;;;;;244.00;87.10;;;;;;;;;;4953370;29;20408;-46
2023/10/22 13:53:39;;;;;;;240.30;82.27;;;;;;;;;;4953207;29;20406;-46
2023/10/22 13:56:06;;;;;;;239.93;81.00;;;;;;;;;;4953730;29;20498;-47
2023/10/22 13:58:32;;;;;;;243.63;85.93;;;;;;;;;;4953350;28;20516;-47
2023/10/22 14:00:58;;;;;;;239.63;78.67;;;;;;;;;;4963932;28;20921;-46
2023/10/22 14:03:24;;;;;;;241.77;83.47;;;;;;;;;;4974834;28;20441;-46